sensor_id;sensor_type;location;lat;lon;timestamp;temperature;humidity
22145;DHT22;11238;48.730;11.566;2024-01-30T00:02:17;-0.10;99.90
22145;DHT22;11238;48.730;11.566;2024-01-30T00:04:43;-0.10;99.90
22145;DHT22;11238;48.730;11.566;2024-01-30T00:07:09;-0.10;99.90
22145;DHT22;11238;48.730;11.566;2024-01-30T00:09:35;-0.10;99.90
22145;DHT22;11238;48.730;11.566;2024-01-30T00:12:01;-0.10;99.90
22145;DHT22;11238;48.730;11.566;2024-01-30T00:14:27;-0.10;99.90
22145;DHT22;11238;48.730;11.566;2024-01-30T00:16:53;-0.10;99.90
22145;DHT22;11238;48.730;11.566;2024-01-30T00:19:18;-0.20;99.90
22145;DHT22;11238;48.730;11.566;2024-01-30T00:21:44;-0.20;99.90
22145;DHT22;11238;48.730;11.566;2024-01-30T00:24:09;-0.20;99.90
22145;DHT22;11238;48.730;11.566;2024-01-30T00:26:35;-0.30;99.90
22145;DHT22;11238;48.730;11.566;2024-01-30T00:29:02;-0.20;99.90
22145;DHT22;11238;48.730;11.566;2024-01-30T00:31:28;-0.20;99.90
22145;DHT22;11238;48.730;11.566;2024-01-30T00:33:54;-0.20;99.90
22145;DHT22;11238;48.730;11.566;2024-01-30T00:36:19;-0.20;99.90
22145;DHT22;11238;48.730;11.566;2024-01-30T00:38:45;-0.30;99.90
22145;DHT22;11238;48.730;11.566;2024-01-30T00:41:11;-0.30;99.90
22145;DHT22;11238;48.730;11.566;2024-01-30T00:43:37;-0.30;99.90
22145;DHT22;11238;48.730;11.566;2024-01-30T00:46:03;-0.40;99.90
22145;DHT22;11238;48.730;11.566;2024-01-30T00:48:29;-0.40;99.90
22145;DHT22;11238;48.730;11.566;2024-01-30T00:50:55;-0.40;99.90
22145;DHT22;11238;48.730;11.566;2024-01-30T00:53:21;-0.50;99.90
22145;DHT22;11238;48.730;11.566;2024-01-30T00:55:47;-0.50;99.90
22145;DHT22;11238;48.730;11.566;2024-01-30T00:58:13;-0.60;99.90
22145;DHT22;11238;48.730;11.566;2024-01-30T01:00:39;-0.60;99.90
22145;DHT22;11238;48.730;11.566;2024-01-30T01:03:05;-0.60;99.90
22145;DHT22;11238;48.730;11.566;2024-01-30T01:05:31;-0.60;99.90
22145;DHT22;11238;48.730;11.566;2024-01-30T01:07:57;-0.50;99.90
22145;DHT22;11238;48.730;11.566;2024-01-30T01:10:23;-0.50;99.90
22145;DHT22;11238;48.730;11.566;2024-01-30T01:12:49;-0.60;99.90
22145;DHT22;11238;48.730;11.566;2024-01-30T01:15:15;-0.50;99.90
22145;DHT22;11238;48.730;11.566;2024-01-30T01:17:41;-0.50;99.90
22145;DHT22;11238;48.730;11.566;2024-01-30T01:20:07;-0.50;99.90
22145;DHT22;11238;48.730;11.566;2024-01-30T01:22:34;-0.60;99.90
22145;DHT22;11238;48.730;11.566;2024-01-30T01:25:00;-0.70;99.90
22145;DHT22;11238;48.730;11.566;2024-01-30T01:27:27;-0.70;99.90
22145;DHT22;11238;48.730;11.566;2024-01-30T01:29:53;-0.70;99.90
22145;DHT22;11238;48.730;11.566;2024-01-30T01:32:19;-0.70;99.90
22145;DHT22;11238;48.730;11.566;2024-01-30T01:34:45;-0.70;99.90
22145;DHT22;11238;48.730;11.566;2024-01-30T01:37:11;-0.70;99.90
22145;DHT22;11238;48.730;11.566;2024-01-30T01:39:37;-0.70;99.90
22145;DHT22;11238;48.730;11.566;2024-01-30T01:42:03;-0.80;99.90
22145;DHT22;11238;48.730;11.566;2024-01-30T01:44:29;-0.80;99.90
22145;DHT22;11238;48.730;11.566;2024-01-30T01:46:57;-0.80;99.90
22145;DHT22;11238;48.730;11.566;2024-01-30T01:49:27;-0.80;99.90
22145;DHT22;11238;48.730;11.566;2024-01-30T01:51:55;-0.80;99.90
22145;DHT22;11238;48.730;11.566;2024-01-30T01:54:24;-0.80;99.90
22145;DHT22;11238;48.730;11.566;2024-01-30T01:56:51;-0.80;99.90
22145;DHT22;11238;48.730;11.566;2024-01-30T01:59:20;-0.80;99.90
22145;DHT22;11238;48.730;11.566;2024-01-30T02:01:46;-0.90;99.90
22145;DHT22;11238;48.730;11.566;2024-01-30T02:04:15;-1.00;99.90
22145;DHT22;11238;48.730;11.566;2024-01-30T02:06:41;-1.00;99.90
22145;DHT22;11238;48.730;11.566;2024-01-30T02:09:07;-1.30;99.90
22145;DHT22;11238;48.730;11.566;2024-01-30T02:11:35;-1.20;99.90
22145;DHT22;11238;48.730;11.566;2024-01-30T02:14:04;-1.20;99.90
22145;DHT22;11238;48.730;11.566;2024-01-30T02:16:30;-1.20;99.90
22145;DHT22;11238;48.730;11.566;2024-01-30T02:18:56;-1.20;99.90
22145;DHT22;11238;48.730;11.566;2024-01-30T02:21:22;-1.30;99.90
22145;DHT22;11238;48.730;11.566;2024-01-30T02:23:50;-1.30;99.90
22145;DHT22;11238;48.730;11.566;2024-01-30T02:26:17;-1.30;99.90
22145;DHT22;11238;48.730;11.566;2024-01-30T02:28:44;-1.30;99.90
22145;DHT22;11238;48.730;11.566;2024-01-30T02:31:09;-1.40;99.90
22145;DHT22;11238;48.730;11.566;2024-01-30T02:33:35;-1.50;99.90
22145;DHT22;11238;48.730;11.566;2024-01-30T02:36:01;-1.50;99.90
22145;DHT22;11238;48.730;11.566;2024-01-30T02:38:27;-1.50;99.90
22145;DHT22;11238;48.730;11.566;2024-01-30T02:40:54;-1.40;99.90
22145;DHT22;11238;48.730;11.566;2024-01-30T02:43:20;-1.50;99.90
22145;DHT22;11238;48.730;11.566;2024-01-30T02:45:46;-1.60;99.90
22145;DHT22;11238;48.730;11.566;2024-01-30T02:48:12;-1.50;99.90
22145;DHT22;11238;48.730;11.566;2024-01-30T02:50:38;-1.50;99.90
22145;DHT22;11238;48.730;11.566;2024-01-30T02:53:03;-1.60;99.90
22145;DHT22;11238;48.730;11.566;2024-01-30T02:55:29;-1.50;99.90
22145;DHT22;11238;48.730;11.566;2024-01-30T02:57:55;-1.60;99.90
22145;DHT22;11238;48.730;11.566;2024-01-30T03:00:21;-1.70;99.90
22145;DHT22;11238;48.730;11.566;2024-01-30T03:02:47;-1.60;99.90
22145;DHT22;11238;48.730;11.566;2024-01-30T03:05:13;-1.60;99.90
22145;DHT22;11238;48.730;11.566;2024-01-30T03:07:39;-1.60;99.90
22145;DHT22;11238;48.730;11.566;2024-01-30T03:10:05;-1.60;99.90
22145;DHT22;11238;48.730;11.566;2024-01-30T03:12:32;-1.60;99.90
22145;DHT22;11238;48.730;11.566;2024-01-30T03:14:58;-1.60;99.90
22145;DHT22;11238;48.730;11.566;2024-01-30T03:17:24;-1.60;99.90
22145;DHT22;11238;48.730;11.566;2024-01-30T03:19:50;-1.60;99.90
22145;DHT22;11238;48.730;11.566;2024-01-30T03:22:16;-1.60;99.90
22145;DHT22;11238;48.730;11.566;2024-01-30T03:24:42;-1.60;99.90
22145;DHT22;11238;48.730;11.566;2024-01-30T03:27:09;-1.60;99.90
22145;DHT22;11238;48.730;11.566;2024-01-30T03:29:35;-1.60;99.90
22145;DHT22;11238;48.730;11.566;2024-01-30T03:32:01;-1.60;99.90
22145;DHT22;11238;48.730;11.566;2024-01-30T03:34:26;-1.60;99.90
22145;DHT22;11238;48.730;11.566;2024-01-30T03:36:52;-1.60;99.90
22145;DHT22;11238;48.730;11.566;2024-01-30T03:39:18;-1.60;99.90
22145;DHT22;11238;48.730;11.566;2024-01-30T03:41:44;-1.70;99.90
22145;DHT22;11238;48.730;11.566;2024-01-30T03:44:10;-1.60;99.90
22145;DHT22;11238;48.730;11.566;2024-01-30T03:46:37;-1.70;99.90
22145;DHT22;11238;48.730;11.566;2024-01-30T03:49:02;-1.70;99.90
22145;DHT22;11238;48.730;11.566;2024-01-30T03:51:32;-1.70;99.90
22145;DHT22;11238;48.730;11.566;2024-01-30T03:53:58;-1.60;99.90
22145;DHT22;11238;48.730;11.566;2024-01-30T03:56:24;-1.70;99.90
22145;DHT22;11238;48.730;11.566;2024-01-30T03:58:51;-1.70;99.90
22145;DHT22;11238;48.730;11.566;2024-01-30T04:01:17;-1.70;99.90
22145;DHT22;11238;48.730;11.566;2024-01-30T04:03:43;-1.70;99.90
22145;DHT22;11238;48.730;11.566;2024-01-30T04:06:10;-1.90;99.90
22145;DHT22;11238;48.730;11.566;2024-01-30T04:08:37;-1.90;99.90
22145;DHT22;11238;48.730;11.566;2024-01-30T04:11:06;-2.00;99.90
22145;DHT22;11238;48.730;11.566;2024-01-30T04:13:35;-2.00;99.90
22145;DHT22;11238;48.730;11.566;2024-01-30T04:16:01;-2.00;99.90
22145;DHT22;11238;48.730;11.566;2024-01-30T04:18:28;-2.10;99.90
22145;DHT22;11238;48.730;11.566;2024-01-30T04:20:54;-2.20;99.90
22145;DHT22;11238;48.730;11.566;2024-01-30T04:23:21;-2.20;99.90
22145;DHT22;11238;48.730;11.566;2024-01-30T04:25:46;-2.20;99.90
22145;DHT22;11238;48.730;11.566;2024-01-30T04:28:12;-2.10;99.90
22145;DHT22;11238;48.730;11.566;2024-01-30T04:30:38;-2.10;99.90
22145;DHT22;11238;48.730;11.566;2024-01-30T04:33:04;-2.20;99.90
22145;DHT22;11238;48.730;11.566;2024-01-30T04:35:30;-2.20;99.90
22145;DHT22;11238;48.730;11.566;2024-01-30T04:37:56;-2.10;99.90
22145;DHT22;11238;48.730;11.566;2024-01-30T04:40:21;-2.30;99.90
22145;DHT22;11238;48.730;11.566;2024-01-30T04:42:47;-2.20;99.90
22145;DHT22;11238;48.730;11.566;2024-01-30T04:45:13;-2.20;99.90
22145;DHT22;11238;48.730;11.566;2024-01-30T04:47:39;-2.30;99.90
22145;DHT22;11238;48.730;11.566;2024-01-30T04:50:06;-2.30;99.90
22145;DHT22;11238;48.730;11.566;2024-01-30T04:52:32;-2.30;99.90
22145;DHT22;11238;48.730;11.566;2024-01-30T04:54:58;-2.30;99.90
22145;DHT22;11238;48.730;11.566;2024-01-30T04:57:24;-2.30;99.90
22145;DHT22;11238;48.730;11.566;2024-01-30T04:59:50;-2.30;99.90
22145;DHT22;11238;48.730;11.566;2024-01-30T05:02:16;-2.30;99.90
22145;DHT22;11238;48.730;11.566;2024-01-30T05:04:41;-2.30;99.90
22145;DHT22;11238;48.730;11.566;2024-01-30T05:07:07;-2.30;99.90
22145;DHT22;11238;48.730;11.566;2024-01-30T05:09:33;-2.30;99.90
22145;DHT22;11238;48.730;11.566;2024-01-30T05:11:59;-2.20;99.90
22145;DHT22;11238;48.730;11.566;2024-01-30T05:14:25;-2.20;99.90
22145;DHT22;11238;48.730;11.566;2024-01-30T05:16:51;-2.20;99.90
22145;DHT22;11238;48.730;11.566;2024-01-30T05:19:17;-2.20;99.90
22145;DHT22;11238;48.730;11.566;2024-01-30T05:21:43;-2.30;99.90
22145;DHT22;11238;48.730;11.566;2024-01-30T05:24:10;-2.30;99.90
22145;DHT22;11238;48.730;11.566;2024-01-30T05:26:36;-2.30;99.90
22145;DHT22;11238;48.730;11.566;2024-01-30T05:29:02;-2.30;99.90
22145;DHT22;11238;48.730;11.566;2024-01-30T05:31:29;-2.30;99.90
22145;DHT22;11238;48.730;11.566;2024-01-30T05:33:54;-2.30;99.90
22145;DHT22;11238;48.730;11.566;2024-01-30T05:36:20;-2.30;99.90
22145;DHT22;11238;48.730;11.566;2024-01-30T05:38:47;-2.30;99.90
22145;DHT22;11238;48.730;11.566;2024-01-30T05:41:13;-2.30;99.90
22145;DHT22;11238;48.730;11.566;2024-01-30T05:43:39;-2.30;99.90
22145;DHT22;11238;48.730;11.566;2024-01-30T05:46:06;-2.30;99.90
22145;DHT22;11238;48.730;11.566;2024-01-30T05:48:32;-2.30;99.90
22145;DHT22;11238;48.730;11.566;2024-01-30T05:50:58;-2.30;99.90
22145;DHT22;11238;48.730;11.566;2024-01-30T05:53:25;-2.30;99.90
22145;DHT22;11238;48.730;11.566;2024-01-30T05:55:51;-2.30;99.90
22145;DHT22;11238;48.730;11.566;2024-01-30T05:58:17;-2.30;99.90
22145;DHT22;11238;48.730;11.566;2024-01-30T06:00:43;-2.30;99.90
22145;DHT22;11238;48.730;11.566;2024-01-30T06:03:09;-2.30;99.90
22145;DHT22;11238;48.730;11.566;2024-01-30T06:05:34;-2.40;99.90
22145;DHT22;11238;48.730;11.566;2024-01-30T06:08:01;-2.40;99.90
22145;DHT22;11238;48.730;11.566;2024-01-30T06:10:27;-2.40;99.90
22145;DHT22;11238;48.730;11.566;2024-01-30T06:12:53;-2.40;99.90
22145;DHT22;11238;48.730;11.566;2024-01-30T06:15:19;-2.40;99.90
22145;DHT22;11238;48.730;11.566;2024-01-30T06:17:44;-2.40;99.90
22145;DHT22;11238;48.730;11.566;2024-01-30T06:20:10;-2.50;99.90
22145;DHT22;11238;48.730;11.566;2024-01-30T06:22:36;-2.50;99.90
22145;DHT22;11238;48.730;11.566;2024-01-30T06:25:02;-2.50;99.90
22145;DHT22;11238;48.730;11.566;2024-01-30T06:27:28;-2.50;99.90
22145;DHT22;11238;48.730;11.566;2024-01-30T06:29:54;-2.50;99.90
22145;DHT22;11238;48.730;11.566;2024-01-30T06:32:20;-2.50;99.90
22145;DHT22;11238;48.730;11.566;2024-01-30T06:34:45;-2.40;99.90
22145;DHT22;11238;48.730;11.566;2024-01-30T06:37:13;-2.60;99.90
22145;DHT22;11238;48.730;11.566;2024-01-30T06:39:39;-2.70;99.90
22145;DHT22;11238;48.730;11.566;2024-01-30T06:44:39;-2.90;99.90
22145;DHT22;11238;48.730;11.566;2024-01-30T06:47:05;-2.80;99.90
22145;DHT22;11238;48.730;11.566;2024-01-30T06:49:30;-2.80;99.90
22145;DHT22;11238;48.730;11.566;2024-01-30T06:51:57;-2.80;99.90
22145;DHT22;11238;48.730;11.566;2024-01-30T06:54:23;-2.70;99.90
22145;DHT22;11238;48.730;11.566;2024-01-30T06:56:49;-2.70;99.90
22145;DHT22;11238;48.730;11.566;2024-01-30T06:59:15;-2.70;99.90
22145;DHT22;11238;48.730;11.566;2024-01-30T07:01:41;-2.70;99.90
22145;DHT22;11238;48.730;11.566;2024-01-30T07:04:06;-2.80;99.90
22145;DHT22;11238;48.730;11.566;2024-01-30T07:06:32;-2.70;99.90
22145;DHT22;11238;48.730;11.566;2024-01-30T07:08:58;-2.70;99.90
22145;DHT22;11238;48.730;11.566;2024-01-30T07:11:24;-2.60;99.90
22145;DHT22;11238;48.730;11.566;2024-01-30T07:13:51;-2.60;99.90
22145;DHT22;11238;48.730;11.566;2024-01-30T07:16:17;-2.60;99.90
22145;DHT22;11238;48.730;11.566;2024-01-30T07:18:43;-2.50;99.90
22145;DHT22;11238;48.730;11.566;2024-01-30T07:21:09;-2.50;99.90
22145;DHT22;11238;48.730;11.566;2024-01-30T07:23:35;-2.50;99.90
22145;DHT22;11238;48.730;11.566;2024-01-30T07:26:05;-2.40;99.90
22145;DHT22;11238;48.730;11.566;2024-01-30T07:28:32;-2.40;99.90
22145;DHT22;11238;48.730;11.566;2024-01-30T07:30:58;-2.40;99.90
22145;DHT22;11238;48.730;11.566;2024-01-30T07:33:24;-2.30;99.90
22145;DHT22;11238;48.730;11.566;2024-01-30T07:35:51;-2.30;99.90
22145;DHT22;11238;48.730;11.566;2024-01-30T07:38:17;-2.20;99.90
22145;DHT22;11238;48.730;11.566;2024-01-30T07:40:43;-2.20;99.90
22145;DHT22;11238;48.730;11.566;2024-01-30T07:43:08;-2.10;99.90
22145;DHT22;11238;48.730;11.566;2024-01-30T07:45:35;-2.00;99.90
22145;DHT22;11238;48.730;11.566;2024-01-30T07:48:01;-2.00;99.90
22145;DHT22;11238;48.730;11.566;2024-01-30T07:50:27;-1.90;99.90
22145;DHT22;11238;48.730;11.566;2024-01-30T07:52:53;-1.90;99.90
22145;DHT22;11238;48.730;11.566;2024-01-30T07:55:21;-1.90;99.90
22145;DHT22;11238;48.730;11.566;2024-01-30T07:57:53;-1.80;99.90
22145;DHT22;11238;48.730;11.566;2024-01-30T08:00:20;-1.70;99.90
22145;DHT22;11238;48.730;11.566;2024-01-30T08:02:46;-1.60;99.90
22145;DHT22;11238;48.730;11.566;2024-01-30T08:05:13;-1.50;99.90
22145;DHT22;11238;48.730;11.566;2024-01-30T08:07:41;-1.50;99.90
22145;DHT22;11238;48.730;11.566;2024-01-30T08:10:12;-1.40;99.90
22145;DHT22;11238;48.730;11.566;2024-01-30T08:12:38;-1.30;99.90
22145;DHT22;11238;48.730;11.566;2024-01-30T08:15:05;-1.20;99.90
22145;DHT22;11238;48.730;11.566;2024-01-30T08:17:31;-1.10;99.90
22145;DHT22;11238;48.730;11.566;2024-01-30T08:19:57;-1.10;99.90
22145;DHT22;11238;48.730;11.566;2024-01-30T08:22:45;-1.00;99.90
22145;DHT22;11238;48.730;11.566;2024-01-30T08:25:11;-0.90;99.90
22145;DHT22;11238;48.730;11.566;2024-01-30T08:27:37;-0.80;99.90
22145;DHT22;11238;48.730;11.566;2024-01-30T08:30:07;-0.70;99.90
22145;DHT22;11238;48.730;11.566;2024-01-30T08:32:33;-0.60;99.90
22145;DHT22;11238;48.730;11.566;2024-01-30T08:34:59;-0.50;99.90
22145;DHT22;11238;48.730;11.566;2024-01-30T08:37:29;-0.30;99.90
22145;DHT22;11238;48.730;11.566;2024-01-30T08:39:56;-0.30;99.90
22145;DHT22;11238;48.730;11.566;2024-01-30T08:42:22;-0.20;99.90
22145;DHT22;11238;48.730;11.566;2024-01-30T08:44:49;-0.10;99.90
22145;DHT22;11238;48.730;11.566;2024-01-30T08:47:17;0.10;99.90
22145;DHT22;11238;48.730;11.566;2024-01-30T08:49:44;0.20;99.90
22145;DHT22;11238;48.730;11.566;2024-01-30T08:52:13;0.30;99.90
22145;DHT22;11238;48.730;11.566;2024-01-30T08:54:39;0.50;99.90
22145;DHT22;11238;48.730;11.566;2024-01-30T08:57:05;0.60;99.90
22145;DHT22;11238;48.730;11.566;2024-01-30T08:59:30;0.70;99.90
22145;DHT22;11238;48.730;11.566;2024-01-30T09:01:56;0.90;99.90
22145;DHT22;11238;48.730;11.566;2024-01-30T09:04:24;1.00;99.90
22145;DHT22;11238;48.730;11.566;2024-01-30T09:06:50;1.20;99.90
22145;DHT22;11238;48.730;11.566;2024-01-30T09:09:17;1.30;99.90
22145;DHT22;11238;48.730;11.566;2024-01-30T09:11:43;1.50;99.90
22145;DHT22;11238;48.730;11.566;2024-01-30T09:14:09;1.70;99.90
22145;DHT22;11238;48.730;11.566;2024-01-30T09:16:35;1.90;99.90
22145;DHT22;11238;48.730;11.566;2024-01-30T09:19:01;2.00;99.90
22145;DHT22;11238;48.730;11.566;2024-01-30T09:21:27;2.20;99.90
22145;DHT22;11238;48.730;11.566;2024-01-30T09:23:54;2.30;99.90
22145;DHT22;11238;48.730;11.566;2024-01-30T09:26:20;2.30;99.90
22145;DHT22;11238;48.730;11.566;2024-01-30T09:28:46;2.60;99.90
22145;DHT22;11238;48.730;11.566;2024-01-30T09:31:12;2.90;99.90
22145;DHT22;11238;48.730;11.566;2024-01-30T09:33:38;3.30;99.90
22145;DHT22;11238;48.730;11.566;2024-01-30T09:36:08;3.60;99.90
22145;DHT22;11238;48.730;11.566;2024-01-30T09:38:34;3.80;99.90
22145;DHT22;11238;48.730;11.566;2024-01-30T09:41:03;3.90;99.90
22145;DHT22;11238;48.730;11.566;2024-01-30T09:43:33;4.00;99.90
22145;DHT22;11238;48.730;11.566;2024-01-30T09:46:02;4.50;99.90
22145;DHT22;11238;48.730;11.566;2024-01-30T09:48:30;5.00;99.90
22145;DHT22;11238;48.730;11.566;2024-01-30T09:50:57;5.70;99.90
22145;DHT22;11238;48.730;11.566;2024-01-30T09:53:24;6.30;99.90
22145;DHT22;11238;48.730;11.566;2024-01-30T09:55:50;7.20;99.90
22145;DHT22;11238;48.730;11.566;2024-01-30T09:58:16;8.00;99.90
22145;DHT22;11238;48.730;11.566;2024-01-30T10:00:42;8.60;99.90
22145;DHT22;11238;48.730;11.566;2024-01-30T10:03:09;9.20;98.60
22145;DHT22;11238;48.730;11.566;2024-01-30T10:05:36;9.80;95.50
22145;DHT22;11238;48.730;11.566;2024-01-30T10:08:06;10.20;94.20
22145;DHT22;11238;48.730;11.566;2024-01-30T10:10:35;10.70;92.50
22145;DHT22;11238;48.730;11.566;2024-01-30T10:13:01;10.80;91.50
22145;DHT22;11238;48.730;11.566;2024-01-30T10:15:28;11.40;91.60
22145;DHT22;11238;48.730;11.566;2024-01-30T10:17:54;11.60;89.30
22145;DHT22;11238;48.730;11.566;2024-01-30T10:20:20;11.40;87.10
22145;DHT22;11238;48.730;11.566;2024-01-30T10:22:48;11.70;88.90
22145;DHT22;11238;48.730;11.566;2024-01-30T10:25:15;11.80;86.70
22145;DHT22;11238;48.730;11.566;2024-01-30T10:27:40;12.20;86.60
22145;DHT22;11238;48.730;11.566;2024-01-30T10:30:07;11.60;85.00
22145;DHT22;11238;48.730;11.566;2024-01-30T10:32:33;12.00;85.90
22145;DHT22;11238;48.730;11.566;2024-01-30T10:34:59;11.70;85.30
22145;DHT22;11238;48.730;11.566;2024-01-30T10:37:25;11.50;86.20
22145;DHT22;11238;48.730;11.566;2024-01-30T10:39:53;11.50;86.30
22145;DHT22;11238;48.730;11.566;2024-01-30T10:42:26;11.10;84.50
22145;DHT22;11238;48.730;11.566;2024-01-30T10:44:56;11.00;88.10
22145;DHT22;11238;48.730;11.566;2024-01-30T10:47:28;11.20;88.60
22145;DHT22;11238;48.730;11.566;2024-01-30T10:49:55;11.30;89.20
22145;DHT22;11238;48.730;11.566;2024-01-30T10:52:23;10.70;86.80
22145;DHT22;11238;48.730;11.566;2024-01-30T10:54:51;10.70;90.00
22145;DHT22;11238;48.730;11.566;2024-01-30T10:57:18;10.50;89.10
22145;DHT22;11238;48.730;11.566;2024-01-30T10:59:45;10.30;91.30
22145;DHT22;11238;48.730;11.566;2024-01-30T11:02:14;10.30;91.50
22145;DHT22;11238;48.730;11.566;2024-01-30T11:04:42;10.70;91.40
22145;DHT22;11238;48.730;11.566;2024-01-30T11:07:19;10.50;91.20
22145;DHT22;11238;48.730;11.566;2024-01-30T11:09:53;10.30;91.00
22145;DHT22;11238;48.730;11.566;2024-01-30T11:12:26;9.40;91.80
22145;DHT22;11238;48.730;11.566;2024-01-30T11:15:06;9.30;92.30
22145;DHT22;11238;48.730;11.566;2024-01-30T11:18:02;8.90;93.60
22145;DHT22;11238;48.730;11.566;2024-01-30T11:20:29;8.30;94.30
22145;DHT22;11238;48.730;11.566;2024-01-30T11:22:59;8.30;94.80
22145;DHT22;11238;48.730;11.566;2024-01-30T11:25:27;8.00;95.70
22145;DHT22;11238;48.730;11.566;2024-01-30T11:27:55;7.70;95.90
22145;DHT22;11238;48.730;11.566;2024-01-30T11:30:26;7.70;97.50
22145;DHT22;11238;48.730;11.566;2024-01-30T11:33:09;7.80;97.60
22145;DHT22;11238;48.730;11.566;2024-01-30T11:35:38;7.60;97.00
22145;DHT22;11238;48.730;11.566;2024-01-30T11:38:08;7.70;97.50
22145;DHT22;11238;48.730;11.566;2024-01-30T11:40:36;7.70;98.10
22145;DHT22;11238;48.730;11.566;2024-01-30T11:43:03;7.70;97.70
22145;DHT22;11238;48.730;11.566;2024-01-30T11:45:30;7.70;98.30
22145;DHT22;11238;48.730;11.566;2024-01-30T11:47:56;7.40;97.50
22145;DHT22;11238;48.730;11.566;2024-01-30T11:50:22;7.50;99.40
22145;DHT22;11238;48.730;11.566;2024-01-30T11:52:48;7.50;99.40
22145;DHT22;11238;48.730;11.566;2024-01-30T11:55:15;7.60;99.10
22145;DHT22;11238;48.730;11.566;2024-01-30T11:57:41;7.60;98.70
22145;DHT22;11238;48.730;11.566;2024-01-30T12:00:14;7.80;98.60
22145;DHT22;11238;48.730;11.566;2024-01-30T12:02:40;7.70;98.20
22145;DHT22;11238;48.730;11.566;2024-01-30T12:05:07;7.50;98.70
22145;DHT22;11238;48.730;11.566;2024-01-30T12:07:33;7.80;99.20
22145;DHT22;11238;48.730;11.566;2024-01-30T12:09:59;7.90;98.90
22145;DHT22;11238;48.730;11.566;2024-01-30T12:12:26;7.90;97.80
22145;DHT22;11238;48.730;11.566;2024-01-30T12:14:52;7.70;98.10
22145;DHT22;11238;48.730;11.566;2024-01-30T12:17:32;7.40;98.00
22145;DHT22;11238;48.730;11.566;2024-01-30T12:20:05;7.30;97.80
22145;DHT22;11238;48.730;11.566;2024-01-30T12:22:46;7.30;98.20
22145;DHT22;11238;48.730;11.566;2024-01-30T12:25:20;7.40;98.60
22145;DHT22;11238;48.730;11.566;2024-01-30T12:27:47;7.60;98.40
22145;DHT22;11238;48.730;11.566;2024-01-30T12:30:17;7.70;98.20
22145;DHT22;11238;48.730;11.566;2024-01-30T12:32:45;7.60;97.00
22145;DHT22;11238;48.730;11.566;2024-01-30T12:35:15;7.70;98.10
22145;DHT22;11238;48.730;11.566;2024-01-30T12:37:43;7.80;98.70
22145;DHT22;11238;48.730;11.566;2024-01-30T12:40:10;7.70;97.30
22145;DHT22;11238;48.730;11.566;2024-01-30T12:42:36;7.70;98.30
22145;DHT22;11238;48.730;11.566;2024-01-30T12:45:03;7.50;97.70
22145;DHT22;11238;48.730;11.566;2024-01-30T12:47:32;7.60;98.60
22145;DHT22;11238;48.730;11.566;2024-01-30T12:49:58;7.30;97.70
22145;DHT22;11238;48.730;11.566;2024-01-30T12:52:23;7.20;98.20
22145;DHT22;11238;48.730;11.566;2024-01-30T12:54:50;7.40;99.10
22145;DHT22;11238;48.730;11.566;2024-01-30T12:57:16;7.40;97.90
22145;DHT22;11238;48.730;11.566;2024-01-30T12:59:42;7.40;98.30
22145;DHT22;11238;48.730;11.566;2024-01-30T13:02:09;7.40;97.60
22145;DHT22;11238;48.730;11.566;2024-01-30T13:04:35;7.40;98.50
22145;DHT22;11238;48.730;11.566;2024-01-30T13:07:01;7.40;97.90
22145;DHT22;11238;48.730;11.566;2024-01-30T13:09:27;7.40;96.70
22145;DHT22;11238;48.730;11.566;2024-01-30T13:11:53;7.40;97.50
22145;DHT22;11238;48.730;11.566;2024-01-30T13:14:19;7.30;96.60
22145;DHT22;11238;48.730;11.566;2024-01-30T13:16:45;7.30;97.30
22145;DHT22;11238;48.730;11.566;2024-01-30T13:19:11;7.30;97.90
22145;DHT22;11238;48.730;11.566;2024-01-30T13:21:37;7.30;97.40
22145;DHT22;11238;48.730;11.566;2024-01-30T13:24:03;7.30;97.10
22145;DHT22;11238;48.730;11.566;2024-01-30T13:26:28;7.30;98.00
22145;DHT22;11238;48.730;11.566;2024-01-30T13:28:56;7.50;98.60
22145;DHT22;11238;48.730;11.566;2024-01-30T13:31:22;7.60;98.20
22145;DHT22;11238;48.730;11.566;2024-01-30T13:33:47;7.70;98.10
22145;DHT22;11238;48.730;11.566;2024-01-30T13:36:14;7.70;98.30
22145;DHT22;11238;48.730;11.566;2024-01-30T13:38:40;7.50;97.60
22145;DHT22;11238;48.730;11.566;2024-01-30T13:41:06;7.60;98.60
22145;DHT22;11238;48.730;11.566;2024-01-30T13:43:31;7.60;98.20
22145;DHT22;11238;48.730;11.566;2024-01-30T13:45:57;7.60;98.10
22145;DHT22;11238;48.730;11.566;2024-01-30T13:48:23;7.70;98.10
22145;DHT22;11238;48.730;11.566;2024-01-30T13:50:48;7.60;98.00
22145;DHT22;11238;48.730;11.566;2024-01-30T13:53:14;7.70;98.10
22145;DHT22;11238;48.730;11.566;2024-01-30T13:55:40;7.80;97.70
22145;DHT22;11238;48.730;11.566;2024-01-30T13:58:06;7.80;98.30
22145;DHT22;11238;48.730;11.566;2024-01-30T14:00:32;7.80;98.00
22145;DHT22;11238;48.730;11.566;2024-01-30T14:02:59;7.70;98.30
22145;DHT22;11238;48.730;11.566;2024-01-30T14:05:25;7.80;98.90
22145;DHT22;11238;48.730;11.566;2024-01-30T14:07:54;7.80;99.00
22145;DHT22;11238;48.730;11.566;2024-01-30T14:10:20;7.90;98.70
22145;DHT22;11238;48.730;11.566;2024-01-30T14:12:46;7.90;98.20
22145;DHT22;11238;48.730;11.566;2024-01-30T14:15:14;7.90;98.60
22145;DHT22;11238;48.730;11.566;2024-01-30T14:17:46;7.90;99.10
22145;DHT22;11238;48.730;11.566;2024-01-30T14:20:14;7.90;98.90
22145;DHT22;11238;48.730;11.566;2024-01-30T14:22:42;7.80;99.50
22145;DHT22;11238;48.730;11.566;2024-01-30T14:25:08;7.80;99.90
22145;DHT22;11238;48.730;11.566;2024-01-30T14:27:35;7.90;99.90
22145;DHT22;11238;48.730;11.566;2024-01-30T14:30:01;7.90;99.90
22145;DHT22;11238;48.730;11.566;2024-01-30T14:32:26;7.80;99.80
22145;DHT22;11238;48.730;11.566;2024-01-30T14:34:52;7.80;99.90
22145;DHT22;11238;48.730;11.566;2024-01-30T14:37:18;7.70;99.70
22145;DHT22;11238;48.730;11.566;2024-01-30T14:39:44;7.70;99.90
22145;DHT22;11238;48.730;11.566;2024-01-30T14:42:10;7.80;99.90
22145;DHT22;11238;48.730;11.566;2024-01-30T14:44:36;7.70;99.50
22145;DHT22;11238;48.730;11.566;2024-01-30T14:47:01;7.70;99.30
22145;DHT22;11238;48.730;11.566;2024-01-30T14:49:27;7.80;99.60
22145;DHT22;11238;48.730;11.566;2024-01-30T14:51:53;7.80;99.30
22145;DHT22;11238;48.730;11.566;2024-01-30T14:54:19;7.80;99.30
22145;DHT22;11238;48.730;11.566;2024-01-30T14:56:45;7.80;99.10
22145;DHT22;11238;48.730;11.566;2024-01-30T14:59:11;7.80;99.20
22145;DHT22;11238;48.730;11.566;2024-01-30T15:01:37;7.80;99.20
22145;DHT22;11238;48.730;11.566;2024-01-30T15:04:03;7.80;99.70
22145;DHT22;11238;48.730;11.566;2024-01-30T15:06:29;7.80;99.60
22145;DHT22;11238;48.730;11.566;2024-01-30T15:08:55;7.80;99.60
22145;DHT22;11238;48.730;11.566;2024-01-30T15:11:21;7.70;99.70
22145;DHT22;11238;48.730;11.566;2024-01-30T15:13:47;7.80;99.70
22145;DHT22;11238;48.730;11.566;2024-01-30T15:16:12;7.80;99.90
22145;DHT22;11238;48.730;11.566;2024-01-30T15:18:38;7.70;99.90
22145;DHT22;11238;48.730;11.566;2024-01-30T15:21:04;7.70;99.90
22145;DHT22;11238;48.730;11.566;2024-01-30T15:23:30;7.70;99.90